sensor_id;sensor_type;location;lat;lon;timestamp;pressure;altitude;pressure_sealevel;temperature;humidity
36598;BME280;22607;49.550;11.940;2023-02-12T00:01:24;98646.97;;;3.59;100.00
36598;BME280;22607;49.550;11.940;2023-02-12T00:03:52;98645.38;;;3.56;100.00
36598;BME280;22607;49.550;11.940;2023-02-12T00:06:19;98639.09;;;3.60;100.00
36598;BME280;22607;49.550;11.940;2023-02-12T00:08:51;98646.91;;;3.60;100.00
36598;BME280;22607;49.550;11.940;2023-02-12T00:11:23;98639.25;;;3.57;100.00
36598;BME280;22607;49.550;11.940;2023-02-12T00:14:00;98645.56;;;3.53;100.00
36598;BME280;22607;49.550;11.940;2023-02-12T00:16:27;98641.28;;;3.52;100.00
36598;BME280;22607;49.550;11.940;2023-02-12T00:18:59;98640.75;;;3.45;100.00
36598;BME280;22607;49.550;11.940;2023-02-12T00:21:26;98631.06;;;3.65;100.00
36598;BME280;22607;49.550;11.940;2023-02-12T00:23:53;98641.34;;;3.66;100.00
36598;BME280;22607;49.550;11.940;2023-02-12T00:26:23;98646.81;;;3.78;100.00
36598;BME280;22607;49.550;11.940;2023-02-12T00:28:50;98649.06;;;3.68;100.00
36598;BME280;22607;49.550;11.940;2023-02-12T00:31:21;98646.16;;;3.74;100.00
36598;BME280;22607;49.550;11.940;2023-02-12T00:33:49;98657.56;;;3.72;100.00
36598;BME280;22607;49.550;11.940;2023-02-12T00:36:19;98653.03;;;3.75;100.00
36598;BME280;22607;49.550;11.940;2023-02-12T00:38:46;98646.03;;;3.76;100.00
36598;BME280;22607;49.550;11.940;2023-02-12T00:41:36;98646.81;;;3.78;100.00
36598;BME280;22607;49.550;11.940;2023-02-12T00:44:03;98642.63;;;3.75;100.00
36598;BME280;22607;49.550;11.940;2023-02-12T00:46:30;98639.94;;;3.77;100.00
36598;BME280;22607;49.550;11.940;2023-02-12T00:48:56;98644.13;;;3.79;100.00
36598;BME280;22607;49.550;11.940;2023-02-12T00:51:26;98648.84;;;3.73;100.00
36598;BME280;22607;49.550;11.940;2023-02-12T00:53:52;98657.22;;;3.78;100.00
36598;BME280;22607;49.550;11.940;2023-02-12T00:56:20;98651.09;;;3.79;100.00
36598;BME280;22607;49.550;11.940;2023-02-12T00:58:46;98653.97;;;3.74;100.00
36598;BME280;22607;49.550;11.940;2023-02-12T01:01:13;98654.97;;;3.72;100.00
36598;BME280;22607;49.550;11.940;2023-02-12T01:03:39;98654.63;;;3.78;100.00
36598;BME280;22607;49.550;11.940;2023-02-12T01:06:06;98663.25;;;3.78;100.00
36598;BME280;22607;49.550;11.940;2023-02-12T01:08:33;98658.66;;;3.84;100.00
36598;BME280;22607;49.550;11.940;2023-02-12T01:11:01;98663.34;;;3.77;100.00
36598;BME280;22607;49.550;11.940;2023-02-12T01:13:29;98665.09;;;3.76;100.00
36598;BME280;22607;49.550;11.940;2023-02-12T01:16:13;98659.91;;;3.76;100.00
36598;BME280;22607;49.550;11.940;2023-02-12T01:18:42;98661.41;;;3.80;100.00
36598;BME280;22607;49.550;11.940;2023-02-12T01:21:18;98657.06;;;3.81;100.00
36598;BME280;22607;49.550;11.940;2023-02-12T01:24:09;98658.06;;;3.78;100.00
36598;BME280;22607;49.550;11.940;2023-02-12T01:26:36;98661.56;;;3.77;100.00
36598;BME280;22607;49.550;11.940;2023-02-12T01:29:05;98663.94;;;3.82;100.00
36598;BME280;22607;49.550;11.940;2023-02-12T01:31:35;98670.78;;;3.83;100.00
36598;BME280;22607;49.550;11.940;2023-02-12T01:34:04;98662.84;;;3.86;100.00
36598;BME280;22607;49.550;11.940;2023-02-12T01:36:32;98667.84;;;3.89;100.00
36598;BME280;22607;49.550;11.940;2023-02-12T01:38:58;98664.66;;;3.84;100.00
36598;BME280;22607;49.550;11.940;2023-02-12T01:41:32;98672.66;;;3.81;100.00
36598;BME280;22607;49.550;11.940;2023-02-12T01:46:36;98676.41;;;3.75;100.00
36598;BME280;22607;49.550;11.940;2023-02-12T01:49:05;98679.84;;;3.76;100.00
36598;BME280;22607;49.550;11.940;2023-02-12T01:51:34;98673.66;;;3.62;100.00
36598;BME280;22607;49.550;11.940;2023-02-12T01:54:04;98678.59;;;3.67;100.00
36598;BME280;22607;49.550;11.940;2023-02-12T01:56:37;98679.44;;;3.67;100.00
36598;BME280;22607;49.550;11.940;2023-02-12T01:59:03;98681.25;;;3.49;100.00
36598;BME280;22607;49.550;11.940;2023-02-12T02:01:31;98678.56;;;3.51;100.00
36598;BME280;22607;49.550;11.940;2023-02-12T02:04:04;98682.75;;;3.53;100.00
36598;BME280;22607;49.550;11.940;2023-02-12T02:06:35;98681.00;;;3.54;100.00
36598;BME280;22607;49.550;11.940;2023-02-12T02:09:05;98685.34;;;3.53;100.00
36598;BME280;22607;49.550;11.940;2023-02-12T02:11:31;98684.69;;;3.50;100.00
36598;BME280;22607;49.550;11.940;2023-02-12T02:14:18;98677.06;;;3.47;100.00
36598;BME280;22607;49.550;11.940;2023-02-12T02:17:23;98691.91;;;3.45;100.00
36598;BME280;22607;49.550;11.940;2023-02-12T02:25:39;98695.69;;;3.55;100.00
36598;BME280;22607;49.550;11.940;2023-02-12T02:28:31;98694.75;;;3.56;100.00
36598;BME280;22607;49.550;11.940;2023-02-12T02:33:55;98683.19;;;3.46;100.00
36598;BME280;22607;49.550;11.940;2023-02-12T02:36:36;98681.16;;;3.51;100.00
36598;BME280;22607;49.550;11.940;2023-02-12T02:39:28;98682.84;;;3.52;100.00
36598;BME280;22607;49.550;11.940;2023-02-12T02:42:16;98677.31;;;3.42;100.00
36598;BME280;22607;49.550;11.940;2023-02-12T02:44:56;98676.38;;;3.43;100.00
36598;BME280;22607;49.550;11.940;2023-02-12T02:47:36;98672.19;;;3.40;100.00
36598;BME280;22607;49.550;11.940;2023-02-12T02:50:11;98684.03;;;3.46;100.00
36598;BME280;22607;49.550;11.940;2023-02-12T02:52:47;98679.84;;;3.44;100.00
36598;BME280;22607;49.550;11.940;2023-02-12T02:55:19;98676.63;;;3.38;100.00
36598;BME280;22607;49.550;11.940;2023-02-12T02:57:56;98681.50;;;3.45;100.00
36598;BME280;22607;49.550;11.940;2023-02-12T03:00:33;98683.31;;;3.42;100.00
36598;BME280;22607;49.550;11.940;2023-02-12T03:03:07;98683.03;;;3.49;100.00
36598;BME280;22607;49.550;11.940;2023-02-12T03:05:41;98676.13;;;3.48;100.00
36598;BME280;22607;49.550;11.940;2023-02-12T03:08:24;98673.72;;;3.45;100.00
36598;BME280;22607;49.550;11.940;2023-02-12T03:10:57;98684.69;;;3.50;100.00
36598;BME280;22607;49.550;11.940;2023-02-12T03:13:31;98683.75;;;3.51;100.00
36598;BME280;22607;49.550;11.940;2023-02-12T03:16:04;98692.94;;;3.58;100.00
36598;BME280;22607;49.550;11.940;2023-02-12T03:21:40;98698.75;;;3.46;100.00
36598;BME280;22607;49.550;11.940;2023-02-12T03:24:20;98694.56;;;3.43;100.00
36598;BME280;22607;49.550;11.940;2023-02-12T03:27:12;98692.63;;;3.47;100.00
36598;BME280;22607;49.550;11.940;2023-02-12T03:29:47;98694.19;;;3.33;100.00
36598;BME280;22607;49.550;11.940;2023-02-12T03:35:11;98697.66;;;3.34;100.00
36598;BME280;22607;49.550;11.940;2023-02-12T03:37:57;98705.81;;;3.44;100.00
36598;BME280;22607;49.550;11.940;2023-02-12T03:40:31;98699.50;;;3.48;100.00
36598;BME280;22607;49.550;11.940;2023-02-12T03:43:22;98701.00;;;3.36;100.00
36598;BME280;22607;49.550;11.940;2023-02-12T03:46:01;98703.31;;;3.24;100.00
36598;BME280;22607;49.550;11.940;2023-02-12T03:49:17;98701.56;;;3.25;100.00
36598;BME280;22607;49.550;11.940;2023-02-12T03:51:45;98709.25;;;3.26;100.00
36598;BME280;22607;49.550;11.940;2023-02-12T03:54:14;98697.56;;;3.35;100.00
36598;BME280;22607;49.550;11.940;2023-02-12T03:56:45;98702.50;;;3.40;100.00
36598;BME280;22607;49.550;11.940;2023-02-12T03:59:18;98697.72;;;3.32;100.00
36598;BME280;22607;49.550;11.940;2023-02-12T04:01:46;98706.97;;;3.38;100.00
36598;BME280;22607;49.550;11.940;2023-02-12T04:04:14;98709.00;;;3.49;100.00
36598;BME280;22607;49.550;11.940;2023-02-12T04:06:41;98705.56;;;3.48;100.00
36598;BME280;22607;49.550;11.940;2023-02-12T04:09:10;98710.81;;;3.47;100.00
36598;BME280;22607;49.550;11.940;2023-02-12T04:14:40;98717.03;;;3.44;100.00
36598;BME280;22607;49.550;11.940;2023-02-12T04:17:25;98723.22;;;3.41;100.00
36598;BME280;22607;49.550;11.940;2023-02-12T04:28:22;98738.97;;;3.38;100.00
36598;BME280;22607;49.550;11.940;2023-02-12T04:31:03;98731.41;;;3.34;100.00
36598;BME280;22607;49.550;11.940;2023-02-12T04:33:36;98736.75;;;3.31;100.00
36598;BME280;22607;49.550;11.940;2023-02-12T04:36:08;98732.94;;;3.38;100.00
36598;BME280;22607;49.550;11.940;2023-02-12T04:38:40;98741.47;;;3.40;100.00
36598;BME280;22607;49.550;11.940;2023-02-12T04:41:10;98739.22;;;3.34;100.00
36598;BME280;22607;49.550;11.940;2023-02-12T04:43:37;98736.09;;;3.27;100.00
36598;BME280;22607;49.550;11.940;2023-02-12T04:46:05;98746.94;;;3.18;100.00
36598;BME280;22607;49.550;11.940;2023-02-12T04:48:48;98742.13;;;3.27;100.00
36598;BME280;22607;49.550;11.940;2023-02-12T04:51:15;98751.59;;;3.28;100.00
36598;BME280;22607;49.550;11.940;2023-02-12T04:53:42;98742.03;;;3.29;100.00
36598;BME280;22607;49.550;11.940;2023-02-12T04:56:10;98751.13;;;3.38;100.00
36598;BME280;22607;49.550;11.940;2023-02-12T04:58:39;98738.09;;;3.22;100.00
36598;BME280;22607;49.550;11.940;2023-02-12T05:01:08;98748.16;;;3.28;100.00
36598;BME280;22607;49.550;11.940;2023-02-12T05:03:36;98746.78;;;3.21;100.00
36598;BME280;22607;49.550;11.940;2023-02-12T05:06:07;98742.88;;;3.30;100.00
36598;BME280;22607;49.550;11.940;2023-02-12T05:08:38;98758.84;;;3.22;100.00
36598;BME280;22607;49.550;11.940;2023-02-12T05:11:06;98758.72;;;3.25;100.00
36598;BME280;22607;49.550;11.940;2023-02-12T05:13:40;98753.66;;;3.22;100.00
36598;BME280;22607;49.550;11.940;2023-02-12T05:16:07;98753.53;;;3.25;100.00
36598;BME280;22607;49.550;11.940;2023-02-12T05:18:39;98749.63;;;3.16;100.00
36598;BME280;22607;49.550;11.940;2023-02-12T05:21:06;98757.00;;;3.24;100.00
36598;BME280;22607;49.550;11.940;2023-02-12T05:23:35;98756.72;;;3.30;100.00
36598;BME280;22607;49.550;11.940;2023-02-12T05:26:11;98749.66;;;3.32;100.00
36598;BME280;22607;49.550;11.940;2023-02-12T05:28:38;98759.59;;;3.24;100.00
36598;BME280;22607;49.550;11.940;2023-02-12T05:31:09;98765.31;;;3.31;100.00
36598;BME280;22607;49.550;11.940;2023-02-12T05:33:36;98762.97;;;3.26;100.00
36598;BME280;22607;49.550;11.940;2023-02-12T05:36:10;98767.94;;;3.31;100.00
36598;BME280;22607;49.550;11.940;2023-02-12T05:38:37;98769.63;;;3.32;100.00
36598;BME280;22607;49.550;11.940;2023-02-12T05:41:11;98773.34;;;3.44;100.00
36598;BME280;22607;49.550;11.940;2023-02-12T05:43:39;98773.09;;;3.48;100.00
36598;BME280;22607;49.550;11.940;2023-02-12T05:46:07;98761.25;;;3.42;100.00
36598;BME280;22607;49.550;11.940;2023-02-12T05:48:34;98766.47;;;3.42;100.00
36598;BME280;22607;49.550;11.940;2023-02-12T05:51:07;98767.22;;;3.45;100.00
36598;BME280;22607;49.550;11.940;2023-02-12T05:53:35;98770.81;;;3.42;100.00
36598;BME280;22607;49.550;11.940;2023-02-12T05:56:22;98769.63;;;3.32;100.00
36598;BME280;22607;49.550;11.940;2023-02-12T05:58:54;98763.78;;;3.44;100.00
36598;BME280;22607;49.550;11.940;2023-02-12T06:01:27;98770.06;;;3.40;100.00
36598;BME280;22607;49.550;11.940;2023-02-12T06:03:54;98767.41;;;3.24;100.00
36598;BME280;22607;49.550;11.940;2023-02-12T06:06:33;98769.78;;;3.28;100.00
36598;BME280;22607;49.550;11.940;2023-02-12T06:09:00;98782.97;;;3.24;100.00
36598;BME280;22607;49.550;11.940;2023-02-12T06:11:28;98784.56;;;3.26;100.00
36598;BME280;22607;49.550;11.940;2023-02-12T06:13:54;98792.47;;;3.25;100.00
36598;BME280;22607;49.550;11.940;2023-02-12T06:16:25;98786.09;;;3.31;100.00
36598;BME280;22607;49.550;11.940;2023-02-12T06:18:54;98789.16;;;3.21;100.00
36598;BME280;22607;49.550;11.940;2023-02-12T06:21:22;98791.63;;;3.24;100.00
36598;BME280;22607;49.550;11.940;2023-02-12T06:23:49;98794.16;;;3.26;100.00
36598;BME280;22607;49.550;11.940;2023-02-12T06:26:24;98791.38;;;3.29;100.00
36598;BME280;22607;49.550;11.940;2023-02-12T06:28:51;98796.81;;;3.24;100.00
36598;BME280;22607;49.550;11.940;2023-02-12T06:33:46;98806.88;;;3.31;100.00
36598;BME280;22607;49.550;11.940;2023-02-12T06:36:13;98807.19;;;3.24;100.00
36598;BME280;22607;49.550;11.940;2023-02-12T06:38:39;98812.00;;;3.32;100.00
36598;BME280;22607;49.550;11.940;2023-02-12T06:41:06;98807.94;;;3.26;100.00
36598;BME280;22607;49.550;11.940;2023-02-12T06:43:32;98814.16;;;3.24;100.00
36598;BME280;22607;49.550;11.940;2023-02-12T06:46:00;98809.66;;;3.27;100.00
36598;BME280;22607;49.550;11.940;2023-02-12T06:48:28;98820.88;;;3.28;100.00
36598;BME280;22607;49.550;11.940;2023-02-12T06:50:55;98811.09;;;3.33;100.00
36598;BME280;22607;49.550;11.940;2023-02-12T06:53:21;98814.38;;;3.37;100.00
36598;BME280;22607;49.550;11.940;2023-02-12T06:55:48;98811.78;;;3.37;100.00
36598;BME280;22607;49.550;11.940;2023-02-12T06:58:14;98816.13;;;3.36;100.00
36598;BME280;22607;49.550;11.940;2023-02-12T07:00:49;98813.00;;;3.30;100.00
36598;BME280;22607;49.550;11.940;2023-02-12T07:03:15;98818.13;;;3.31;100.00
36598;BME280;22607;49.550;11.940;2023-02-12T07:05:46;98826.06;;;3.28;100.00
36598;BME280;22607;49.550;11.940;2023-02-12T07:08:14;98829.59;;;3.27;100.00
36598;BME280;22607;49.550;11.940;2023-02-12T07:10:40;98824.00;;;3.17;100.00
36598;BME280;22607;49.550;11.940;2023-02-12T07:13:07;98839.84;;;3.30;100.00
36598;BME280;22607;49.550;11.940;2023-02-12T07:15:42;98839.13;;;3.44;100.00
36598;BME280;22607;49.550;11.940;2023-02-12T07:18:09;98841.78;;;3.42;100.00
36598;BME280;22607;49.550;11.940;2023-02-12T07:20:35;98842.25;;;3.51;100.00
36598;BME280;22607;49.550;11.940;2023-02-12T07:23:04;98840.72;;;3.47;100.00
36598;BME280;22607;49.550;11.940;2023-02-12T07:25:31;98854.50;;;3.49;100.00
36598;BME280;22607;49.550;11.940;2023-02-12T07:27:57;98846.53;;;3.52;100.00
36598;BME280;22607;49.550;11.940;2023-02-12T07:30:24;98846.69;;;3.49;100.00
36598;BME280;22607;49.550;11.940;2023-02-12T07:32:50;98849.91;;;3.54;100.00
36598;BME280;22607;49.550;11.940;2023-02-12T07:35:25;98847.06;;;3.59;100.00
36598;BME280;22607;49.550;11.940;2023-02-12T07:37:51;98844.97;;;3.65;100.00
36598;BME280;22607;49.550;11.940;2023-02-12T07:40:18;98849.09;;;3.70;100.00
36598;BME280;22607;49.550;11.940;2023-02-12T07:42:44;98843.31;;;3.64;100.00
36598;BME280;22607;49.550;11.940;2023-02-12T07:45:10;98852.00;;;3.81;100.00
36598;BME280;22607;49.550;11.940;2023-02-12T07:47:37;98849.63;;;3.76;100.00
36598;BME280;22607;49.550;11.940;2023-02-12T07:50:04;98854.75;;;3.78;100.00
36598;BME280;22607;49.550;11.940;2023-02-12T07:52:32;98855.28;;;3.85;100.00
36598;BME280;22607;49.550;11.940;2023-02-12T07:55:01;98858.16;;;3.96;100.00
36598;BME280;22607;49.550;11.940;2023-02-12T07:57:28;98850.16;;;3.83;100.00
36598;BME280;22607;49.550;11.940;2023-02-12T07:59:54;98859.00;;;3.97;100.00
36598;BME280;22607;49.550;11.940;2023-02-12T08:02:26;98858.06;;;3.98;100.00
36598;BME280;22607;49.550;11.940;2023-02-12T08:04:56;98860.22;;;4.23;100.00
36598;BME280;22607;49.550;11.940;2023-02-12T08:07:24;98853.84;;;4.29;100.00
36598;BME280;22607;49.550;11.940;2023-02-12T08:09:51;98863.78;;;4.38;100.00
36598;BME280;22607;49.550;11.940;2023-02-12T08:12:19;98864.09;;;4.48;100.00
36598;BME280;22607;49.550;11.940;2023-02-12T08:14:45;98861.75;;;4.43;100.00
36598;BME280;22607;49.550;11.940;2023-02-12T08:17:11;98858.22;;;4.44;100.00
36598;BME280;22607;49.550;11.940;2023-02-12T08:19:38;98854.69;;;4.45;100.00
36598;BME280;22607;49.550;11.940;2023-02-12T08:22:04;98865.28;;;4.42;100.00
36598;BME280;22607;49.550;11.940;2023-02-12T08:24:37;98862.94;;;4.54;100.00
36598;BME280;22607;49.550;11.940;2023-02-12T08:27:04;98862.78;;;4.57;100.00
36598;BME280;22607;49.550;11.940;2023-02-12T08:29:30;98867.03;;;4.74;100.00
36598;BME280;22607;49.550;11.940;2023-02-12T08:32:00;98871.16;;;4.62;100.00
36598;BME280;22607;49.550;11.940;2023-02-12T08:34:32;98874.50;;;4.80;100.00
36598;BME280;22607;49.550;11.940;2023-02-12T08:37:14;98876.00;;;4.84;100.00
36598;BME280;22607;49.550;11.940;2023-02-12T08:39:40;98863.75;;;5.03;100.00
36598;BME280;22607;49.550;11.940;2023-02-12T08:42:08;98867.59;;;5.11;100.00
36598;BME280;22607;49.550;11.940;2023-02-12T08:44:34;98866.00;;;5.09;100.00
36598;BME280;22607;49.550;11.940;2023-02-12T08:47:03;98871.56;;;5.33;100.00
36598;BME280;22607;49.550;11.940;2023-02-12T08:49:31;98869.81;;;5.48;100.00
36598;BME280;22607;49.550;11.940;2023-02-12T08:51:59;98868.88;;;5.80;100.00
36598;BME280;22607;49.550;11.940;2023-02-12T08:54:28;98864.91;;;6.03;100.00
36598;BME280;22607;49.550;11.940;2023-02-12T08:56:57;98867.41;;;6.05;100.00
36598;BME280;22607;49.550;11.940;2023-02-12T08:59:24;98859.59;;;6.05;100.00
36598;BME280;22607;49.550;11.940;2023-02-12T09:01:51;98865.25;;;5.97;100.00
36598;BME280;22607;49.550;11.940;2023-02-12T09:04:21;98870.66;;;6.09;100.00
36598;BME280;22607;49.550;11.940;2023-02-12T09:06:48;98853.13;;;5.96;100.00
36598;BME280;22607;49.550;11.940;2023-02-12T09:09:15;98872.72;;;6.18;100.00
36598;BME280;22607;49.550;11.940;2023-02-12T09:11:43;98871.25;;;6.28;100.00
36598;BME280;22607;49.550;11.940;2023-02-12T09:14:13;98860.88;;;6.27;100.00
36598;BME280;22607;49.550;11.940;2023-02-12T09:16:44;98860.50;;;6.33;100.00
36598;BME280;22607;49.550;11.940;2023-02-12T09:19:13;98866.28;;;6.38;100.00
36598;BME280;22607;49.550;11.940;2023-02-12T09:21:41;98864.22;;;6.29;100.00
36598;BME280;22607;49.550;11.940;2023-02-12T09:24:08;98864.13;;;6.30;100.00
36598;BME280;22607;49.550;11.940;2023-02-12T09:26:35;98877.25;;;6.43;100.00
36598;BME280;22607;49.550;11.940;2023-02-12T09:29:02;98866.06;;;6.56;100.00
36598;BME280;22607;49.550;11.940;2023-02-12T09:31:30;98868.63;;;6.70;100.00
36598;BME280;22607;49.550;11.940;2023-02-12T09:34:00;98869.66;;;6.68;100.00
36598;BME280;22607;49.550;11.940;2023-02-12T09:36:27;98869.09;;;6.77;100.00
36598;BME280;22607;49.550;11.940;2023-02-12T09:38:54;98871.66;;;6.92;100.00
36598;BME280;22607;49.550;11.940;2023-02-12T09:44:23;98872.78;;;7.15;100.00
36598;BME280;22607;49.550;11.940;2023-02-12T09:47:03;98867.66;;;7.14;100.00
36598;BME280;22607;49.550;11.940;2023-02-12T09:52:27;98871.00;;;7.16;100.00
36598;BME280;22607;49.550;11.940;2023-02-12T09:54:55;98877.78;;;7.18;100.00
36598;BME280;22607;49.550;11.940;2023-02-12T09:57:26;98877.84;;;7.31;100.00
36598;BME280;22607;49.550;11.940;2023-02-12T10:00:29;98882.53;;;7.26;100.00
36598;BME280;22607;49.550;11.940;2023-02-12T10:03:01;98875.78;;;7.09;100.00
36598;BME280;22607;49.550;11.940;2023-02-12T10:05:39;98883.03;;;7.18;100.00
36598;BME280;22607;49.550;11.940;2023-02-12T10:08:22;98882.84;;;7.21;100.00
36598;BME280;22607;49.550;11.940;2023-02-12T10:13:38;98879.97;;;7.12;100.00
36598;BME280;22607;49.550;11.940;2023-02-12T10:17:07;98888.56;;;7.14;100.00
36598;BME280;22607;49.550;11.940;2023-02-12T10:25:35;98873.69;;;7.42;100.00
36598;BME280;22607;49.550;11.940;2023-02-12T10:28:18;98882.47;;;7.41;100.00
36598;BME280;22607;49.550;11.940;2023-02-12T10:30:56;98878.59;;;7.46;100.00
36598;BME280;22607;49.550;11.940;2023-02-12T10:33:28;98881.19;;;7.33;100.00
36598;BME280;22607;49.550;11.940;2023-02-12T10:38:34;98874.13;;;7.61;100.00
36598;BME280;22607;49.550;11.940;2023-02-12T10:41:02;98882.59;;;7.52;100.00
36598;BME280;22607;49.550;11.940;2023-02-12T10:43:29;98878.13;;;7.67;100.00
36598;BME280;22607;49.550;11.940;2023-02-12T10:45:56;98882.50;;;7.67;100.00
36598;BME280;22607;49.550;11.940;2023-02-12T10:48:29;98866.19;;;7.63;100.00
36598;BME280;22607;49.550;11.940;2023-02-12T10:53:52;98873.25;;;7.48;100.00
36598;BME280;22607;49.550;11.940;2023-02-12T10:56:20;98874.78;;;7.78;100.00
36598;BME280;22607;49.550;11.940;2023-02-12T10:58:51;98873.63;;;7.82;100.00
36598;BME280;22607;49.550;11.940;2023-02-12T11:01:26;98873.72;;;7.94;100.00
36598;BME280;22607;49.550;11.940;2023-02-12T11:03:54;98880.22;;;8.01;100.00
36598;BME280;22607;49.550;11.940;2023-02-12T11:06:32;98865.75;;;8.08;100.00
36598;BME280;22607;49.550;11.940;2023-02-12T11:08:59;98870.69;;;8.13;100.00
36598;BME280;22607;49.550;11.940;2023-02-12T11:11:30;98868.72;;;8.04;100.00
36598;BME280;22607;49.550;11.940;2023-02-12T11:14:04;98863.78;;;7.99;100.00
36598;BME280;22607;49.550;11.940;2023-02-12T11:16:50;98868.81;;;8.02;100.00
36598;BME280;22607;49.550;11.940;2023-02-12T11:19:24;98865.31;;;8.14;100.00
36598;BME280;22607;49.550;11.940;2023-02-12T11:22:11;98867.22;;;8.12;100.00
36598;BME280;22607;49.550;11.940;2023-02-12T11:24:45;98856.63;;;8.27;100.00
36598;BME280;22607;49.550;11.940;2023-02-12T11:27:22;98853.28;;;8.12;100.00
36598;BME280;22607;49.550;11.940;2023-02-12T11:30:19;98859.81;;;8.06;100.00
36598;BME280;22607;49.550;11.940;2023-02-12T11:32:46;98857.19;;;8.06;100.00
36598;BME280;22607;49.550;11.940;2023-02-12T11:35:20;98857.81;;;8.10;100.00
36598;BME280;22607;49.550;11.940;2023-02-12T11:37:57;98868.81;;;8.02;100.00
36598;BME280;22607;49.550;11.940;2023-02-12T11:40:27;98864.91;;;7.95;100.00
36598;BME280;22607;49.550;11.940;2023-02-12T11:43:02;98867.75;;;8.05;100.00
36598;BME280;22607;49.550;11.940;2023-02-12T11:45:43;98867.66;;;8.06;100.00
36598;BME280;22607;49.550;11.940;2023-02-12T11:48:22;98860.31;;;8.11;100.00
36598;BME280;22607;49.550;11.940;2023-02-12T11:50:56;98853.63;;;8.07;100.00
36598;BME280;22607;49.550;11.940;2023-02-12T11:53:28;98854.84;;;8.14;100.00
36598;BME280;22607;49.550;11.940;2023-02-12T11:56:04;98859.84;;;8.31;98.58
36598;BME280;22607;49.550;11.940;2023-02-12T11:58:31;98860.31;;;8.11;100.00
36598;BME280;22607;49.550;11.940;2023-02-12T12:01:07;98858.44;;;8.00;100.00
36598;BME280;22607;49.550;11.940;2023-02-12T12:03:44;98860.94;;;8.15;100.00
36598;BME280;22607;49.550;11.940;2023-02-12T12:09:02;98855.59;;;8.17;100.00
36598;BME280;22607;49.550;11.940;2023-02-12T12:11:39;98863.88;;;7.71;100.00
36598;BME280;22607;49.550;11.940;2023-02-12T12:14:26;98866.59;;;7.70;100.00
36598;BME280;22607;49.550;11.940;2023-02-12T12:17:02;98859.91;;;7.92;100.00
36598;BME280;22607;49.550;11.940;2023-02-12T12:20:00;98862.84;;;7.87;100.00
36598;BME280;22607;49.550;11.940;2023-02-12T12:22:39;98861.59;;;7.93;100.00
36598;BME280;22607;49.550;11.940;2023-02-12T12:25:21;98859.38;;;7.99;100.00
36598;BME280;22607;49.550;11.940;2023-02-12T12:33:43;98864.19;;;8.06;100.00
36598;BME280;22607;49.550;11.940;2023-02-12T12:42:00;98861.34;;;8.22;99.23
36598;BME280;22607;49.550;11.940;2023-02-12T12:47:40;98842.69;;;8.39;97.40
36598;BME280;22607;49.550;11.940;2023-02-12T12:55:41;98850.59;;;8.51;97.48
36598;BME280;22607;49.550;11.940;2023-02-12T13:09:58;98839.47;;;8.73;96.05
36598;BME280;22607;49.550;11.940;2023-02-12T13:13:05;98841.34;;;8.71;96.37
36598;BME280;22607;49.550;11.940;2023-02-12T13:21:05;98852.16;;;8.91;93.33
36598;BME280;22607;49.550;11.940;2023-02-12T13:23:50;98846.13;;;8.77;92.52
36598;BME280;22607;49.550;11.940;2023-02-12T13:29:16;98847.81;;;8.78;92.84
36598;BME280;22607;49.550;11.940;2023-02-12T13:31:48;98850.25;;;8.69;94.36
36598;BME280;22607;49.550;11.940;2023-02-12T13:34:17;98838.03;;;8.56;94.46
36598;BME280;22607;49.550;11.940;2023-02-12T13:36:45;98847.97;;;8.51;95.72
36598;BME280;22607;49.550;11.940;2023-02-12T13:39:21;98855.00;;;8.63;93.98
36598;BME280;22607;49.550;11.940;2023-02-12T13:42:02;98845.22;;;8.65;93.09
36598;BME280;22607;49.550;11.940;2023-02-12T13:47:28;98850.44;;;8.41;94.79
36598;BME280;22607;49.550;11.940;2023-02-12T13:50:10;98851.25;;;8.41;95.48
36598;BME280;22607;49.550;11.940;2023-02-12T13:52:49;98848.13;;;8.36;95.14
36598;BME280;22607;49.550;11.940;2023-02-12T14:01:04;98853.91;;;8.28;96.57
36598;BME280;22607;49.550;11.940;2023-02-12T14:03:35;98856.06;;;8.35;96.69
36598;BME280;22607;49.550;11.940;2023-02-12T14:08:39;98860.91;;;8.28;95.62
36598;BME280;22607;49.550;11.940;2023-02-12T14:11:15;98851.59;;;8.37;94.83
36598;BME280;22607;49.550;11.940;2023-02-12T14:13:51;98848.94;;;8.50;92.83
36598;BME280;22607;49.550;11.940;2023-02-12T14:16:22;98855.03;;;8.37;94.73
36598;BME280;22607;49.550;11.940;2023-02-12T14:27:57;98846.66;;;8.45;93.90
36598;BME280;22607;49.550;11.940;2023-02-12T14:30:34;98844.78;;;8.34;95.04
36598;BME280;22607;49.550;11.940;2023-02-12T14:38:56;98824.25;;;8.28;96.47
36598;BME280;22607;49.550;11.940;2023-02-12T14:40:50;98826.78;;;8.30;97.30
36598;BME280;22607;49.550;11.940;2023-02-12T14:43:37;98833.19;;;8.12;98.45
36598;BME280;22607;49.550;11.940;2023-02-12T14:48:54;98830.34;;;8.28;98.30
36598;BME280;22607;49.550;11.940;2023-02-12T14:54:15;98826.81;;;8.17;98.89
36598;BME280;22607;49.550;11.940;2023-02-12T14:56:46;98821.13;;;8.23;98.98
36598;BME280;22607;49.550;11.940;2023-02-12T14:59:17;98823.00;;;8.34;98.91
36598;BME280;22607;49.550;11.940;2023-02-12T15:01:46;98821.50;;;8.43;97.78
36598;BME280;22607;49.550;11.940;2023-02-12T15:04:20;98819.53;;;8.33;98.33
36598;BME280;22607;49.550;11.940;2023-02-12T15:07:04;98816.50;;;8.39;96.94
36598;BME280;22607;49.550;11.940;2023-02-12T15:09:41;98816.63;;;8.25;99.12
36598;BME280;22607;49.550;11.940;2023-02-12T15:12:16;98817.28;;;8.16;99.69
36598;BME280;22607;49.550;11.940;2023-02-12T15:14:49;98818.22;;;8.14;100.00
36598;BME280;22607;49.550;11.940;2023-02-12T15:17:22;98814.94;;;8.24;100.00
36598;BME280;22607;49.550;11.940;2023-02-12T15:20:05;98808.16;;;8.21;99.96
36598;BME280;22607;49.550;11.940;2023-02-12T15:22:38;98809.50;;;8.27;99.72